Terminal Aerodrome Forecast
Issued by NWS St Louis, MO

Home | Current Version | Previous Version | Text Only | Print | Product List | Glossary On
Versions: 1 2 3 4 5 6 7 8 9 10 11 12 13 14 15 16 17 18 19 20 21 22 23 24 25 26 27 28 29 30 31 32
808
FTUS43 KLSX 280528
TAFSTL
TAF
KSTL 280528Z 2806/2912 24006KT P6SM FEW060
     FM281300 26014KT P6SM FEW035
     FM290000 32005KT P6SM SCT200=

USA.gov is the U.S. government's official web portal to all federal, state and local government web resources and services.